Timeline UpdatesTrip UpdatesNews PostsPvt Posts♥♥Travel TipsAdmin PostsConv PostsFollowed PostsChat RequestsBlog PostsPNR Posts

Disclaimer
Search
 
 
Sun Oct 26, 2014 05:05:00 ISTHomeTrainsΣChainsAtlasPNRForumGalleryNewsFAQTripsMembersLoginFeedback
No Recent News for this Train
Other Trains in the News **new
Latest...
Diverted via Asansol-Jhajha-Patna-Mughalsarai from 15/10/14-20/10/14 #1245502.
Wed Oct 15, 2014 (09:42PM)
⇐ Return Journey: Train# 13010

13009/Doon Express

Time-Table HAS CHANGED.
Oct 15 (9:42PM)
Change Departure Station:
Change Arrival Station:
Post a Train Travel TipPost a Train Travel Tip **new
Post a Comment/Question/Picture/VideoPost a Comment/Question/Picture/Video
Inaugural Run
Thu Oct 01, 1925
Pantry/Catering
✕ NO Pantry Car
✓ Catering Avbl
RSA - Rake Sharing
Rake/Coach Composition
LOCO-SLR-GS-S1-S2-S3-S4-S5-S6-A1-B1-B2-B3-S7-S8-S9-S10-S11-S12-GS-GS-SLR
Loco
Loco :HWH WAP#4[HWH-MGS] LKO WDM#3A/3D[MGS-DDN] Author: ✖★hAяѕH °° °°•ⓥⓘⓡDiesel Philic°°•ⓥⓘⓡ...
Read more...
Entry# 249963
News    PNR    Forum    Time-Table    Availability    Fare Chart    Map    Arr/Dep History    Trips    Gallery    ΣChains    X/O    Timeline    
Travel Time: 3h 41m    7 halts    Distance: 213 km    Avg Speed: 57 km/hr
Type: Mail/Express
Zone: ER/Eastern
Departs @ 20:30 (Avg 21m late)
Platform# 8
SMTWTFS
Kolkata Howrah Junction/HWH 
Arrives @ 00:11 +1 night (Avg 31m late)
Platform# ???
SMTWTFS
Asansol Junction/ASN 

7 halts. 56 intermediate Stations between Kolkata Howrah Junction and Asansol Junction

Show ALL intermediate Stations  Show Old Time-Table

#TrkCodeStation NameX/OArrivesAvgDepartsAvgHaltPFDay#KmSpeedElevZoneAddress
1/==/HWHKolkata Howrah Junction (23)»  -20:30+21810.04010mERHowrah 711101, West Bengal
2/==/SRPSerampore (4)X  21:00 20:59+1921:08 21:00+288 1m3119.54011mERdist - hooghly, West Bengal
3/==/CGRChandan Nagar (3)X  21:21 21:20+2221:23 21:21+232 1m3132.72716mERDist -HOOGHLY - 712136, West Bengal
4/==/BDCBandel Junction (7)X  21:36+1921:41+215m1139.57514mERdist - HOOGHLY, West Bengal
5/==/BWNBarddhaman Junction (8)  22:35+2222:40+225m21106.78234mERDist - Barddhaman, West Bengal
6/==/PANPanagarh (4)X  23:16 23:15+2823:18 23:16+292 1m--1154.76270mERKaksa, West Bengal
7/==/DGRDurgapur (5)  23:31+2823:33+282m31170.37771mERDurgapur, West Bengal
8/==/RNGRaniGanj (4)  23:53 23:52+3023:55 23:53+312 1m--1194.66092mERRaniganj, West Bengal
9/==/ASNAsansol Junction (7)•XO  00:11+3100:16+325m--2212.761113mERDist - Bardhaman, West Bengal
10/==/BRRBarakar (2)  00:34 00:33+2200:36 00:34+222 1m--2229.948129mERDist. Bardhaman, West Bengal
11/==/DHNDhanbad Junction (9)X  01:25+1601:30+175m32270.971235mECR2319801. Div. HQ ECR, Jharkhand
12/==/GMONetaji SC Bose Gomoh Junction (6)X  01:55+1802:05+2410m32300.777239mECRGomoh, Jharkhand
13/==/PNMEParasnath (5)X  02:19+2902:24+285m--2318.890282mECRGiridih 06532-233419, Jharkhand
14/==/HZDHazaribagh Road (4)X  02:42+3502:44+362m--2345.973330mECRHazaribagh, Jharkhand
15/==/PSBParsabad (4)  03:02+3803:04+382m--2367.888346mECRNational Highway 2, Jharkhand
16/==/KQRKoderma Junction (7)X  03:22+4203:25+423m--2394.164399mECR06534-222410 Koderma, Jharkhand
17/==/PRPPaharpurX  04:06+4604:08+482m--2438.267150mECRGaya, Bihar
18/==/TKNTankuppaX  04:19+5204:21+522m--2450.535127mECRState Highway 70, Bihar
19/==/GAYAGaya Junction (9)X  04:55+4805:00+485m12470.668117mECR0631-2220283, Bihar
20/==/GRRUGuraruX  05:19+5105:21+532m--2492.081114mECRGuraru, Bihar
21/==/RFJRafiGanj (4)X  05:33+5405:35+572m--2508.272102mECRRafiganj, Bihar
22/==/JHNJakhimX  05:44+5905:46+1:002m--2519.06693mECRbel Rd, Bihar
23/==/PESPhesarX  05:56+1:0105:58+1:062m--2530.167104mECRpheshar, Bihar
24/==/AUBRAnugraha Narayan Road (4)X  06:06+1:0706:08+1:082m22539.073104mECR06186-285271, Bihar
25/==/SEBSon Nagar Junction (4)  06:17+1:0906:19+1:112m--2549.931110mECRBarun, Bihar
26/==/DOSDehri On Sone (6)X  06:30+1:1206:32+1:122m--2555.681114mECRRohtas(06184-253154), Bihar
27/==/SSMSasaram Junction (4)  06:45+1:1606:47+1:172m22573.389111mECR06184-222051, Bihar
28/==/KTQKudra (2)X  07:04+1:2107:06+1:242m--2598.58492mECRKudra, Bihar
29/==/BBUBhabua Road (4)X  07:22+1:2607:24+1:292m--2620.87780mECR06187-222222, Bihar
30/==/DGODurgautiX  07:31+1:3007:33+1:302m--2629.85078mECRDistt Kaimur, Bihar
31/==/KMSKaramnasa  07:47+1:2707:49+1:282m--2641.48278mECRNational Highway 2, Uttar Pradesh
32/==/SYJSaidrajaO  07:55+1:2907:57+1:302m--2649.66380mECRSaiyedraja, Uttar Pradesh
33/==/CDMRChandauli MajhwarXO  08:05+1:3208:07+1:322m--2658.01579mECRNational Highway 2, Uttar Pradesh
34/==/MGSMughal Sarai Junction (8)X  09:17+5009:37+5720m--2675.42683mECRDistt: Chandauli Pin 232101, Uttar Pradesh
35/==/KEIKashi (3)X  10:02+1:3710:03+1:411m12686.41985mNRVaranasi, Uttar Pradesh
36/==%BSBVaranasi Junction (9)X  10:20+1:4110:30+1:4710m42691.76282mNRVaranasi 221002, Uttar Pradesh
37/==/BTPBabatpur (2)  10:48+1:4910:49+1:511m--2710.26284mNRSatomahua-Mangari Rd, Uttar Pradesh
38/==/KSFKhalispur (2)  10:58+1:5410:59+1:541m--2719.66283mNRPhulpur, Uttar Pradesh
39/==/JLLJalalGanj (2)X  11:10+1:5911:11+1:591m--2730.94887mNRJalalganj Railway Station, Uttar Pradesh
40/==/ZBDZafarabad Junction (4)  11:26+2:0111:27+2:031m--2742.94383mNRNational Highway 56, Uttar Pradesh
41|--|JNUJaunpur Junction (5)  11:36+2:0611:38+1:582m12749.46783mNRJaunpur, Uttar Pradesh
42|--|SHGShahganj Junction (4)X  12:03 12:08+2:0812:07 12:13+2:134 5m--2782.72990mNRShahganj, Uttar Pradesh
43|--|BWIBilwai (1)12:36+2:0212:37+2:031m12793.63291mNRBilwai, Uttar Pradesh
44|--|MLPRMalipur (2)  13:03+1:5513:04+1:581m--2807.76492mNRMalipur, Uttar Pradesh
45|--|ABPAkbarpur Junction (2)  13:22+2:0013:24+2:012m--2826.87892mNRAkbarpur, Uttar Pradesh
46|--|GGJGoshainGanj (3)  13:41+2:0813:42+2:091m--2849.06698mNRGoshainganj, Uttar Pradesh
47|--|AYAyodhya Junction (3)  14:11+2:1414:12+2:161m12880.72798mNRAyodhya, Uttar Pradesh
48|--|ACNDAcharya Narendra Dev Nagar  14:22+2:1914:23+2:221m--2885.26104mNRFaizabad, Uttar Pradesh
49|--|FDFaizabad Junction (5)X  14:44+2:1114:49 14:53+2:135 9m12887.457104mNRFaizabad, Uttar Pradesh
50|--|SLWSohwal  15:09+2:1815:10+2:181m--2902.762107mNRFaizabad Rd, Uttar Pradesh
51|--|RDLRudauli (2)  15:32+2:2115:33+2:221m--2925.558112mNRRudauli, Uttar Pradesh
52|--|DYDDaryabad  15:57+2:2315:58+2:241m--2948.646116mNRFaizabad Rd, Uttar Pradesh
53|--|SGJSafdarGanj  16:34 16:24+2:1616:35 16:25+2:161m--2968.521116mNRFaizabad Rd, Uttar Pradesh
54|--|BBKBarabanki Junction (4)X  17:17+1:4917:18+1:531m12986.728122mNRPin-225001, Uttar Pradesh
55/==/LKOLucknow Charbagh NR (9)X  18:20+1:4518:35+1:4315m521015.262123mNR226004, Uttar Pradesh
56/==/SANSandila (3)  19:22+1:5619:24+1:592m--21063.768132mNRSandila, Uttar Pradesh
57/==/BLMBalamau Junction (4)  19:42+2:0019:44+2:012m--21084.0124139mNRBalamau, Uttar Pradesh
58/==/HRIHardoi (5)XO  20:00+2:1220:13+2:0613m121117.177146mNRHardoi, Uttar Pradesh
59/==/AJIAnjhi ShahabadX  20:38+2:1120:40+2:142m--21149.348148mNRAnjhi Shahabad, Uttar Pradesh
60/==/ROZARoza Junction (4)O  21:09+2:0621:11 21:10+2:082 1m--21172.737156mNRShahjahanpur, Uttar Pradesh
61/==/SPNShahjahanpur Junction (3)X  21:25 21:22+2:0521:28 21:25+2:063m--21180.068156mNRShahjahanpur, Uttar Pradesh
62/==/TLHTilhar  21:43 21:41+2:1221:45 21:42+2:122 1m--21198.172163mNRTilhar, Uttar Pradesh
63/==/PMRPitambarpur (3)XO  22:12 22:09+2:1622:14 22:10+2:202 1m--21230.654171mNRPitambarpur, Uttar Pradesh
64/==/BEBareilly Junction (4)X  22:35 22:32+2:1122:40 22:37+2:125m221250.470174mNRBareilly, Uttar Pradesh
65/==/NRSNagaria SadatX23:06 23:04+2:3123:07 23:05+2:261m--21282.170177mNRNagaria Sadat, Uttar Pradesh
66/==/RMURampur Junction (3)X  23:33 23:32+2:3023:38 23:33+2:365 1m--21313.535190mNRRampur, Uttar Pradesh
67/==/MBMoradabad Junction (7)X  00:20+2:4900:30+2:5010m231340.867201mNRMoradabad, Uttar Pradesh
68/==/SEOSeohara  01:11+2:4901:13 01:12+2:502 1m--31386.755224mNRSeohara, Uttar Pradesh
69/==/DPRDhampurX  01:28 01:27+2:4601:30 01:28+2:472 1m--31400.559236mNRDhampur, Uttar Pradesh
70/==/NGGNagina (3)XO  01:45+2:4301:47+2:452m--31417.225247mNRNagina, Uttar Pradesh
71/==/NBDNajibabad Junction (3)XO  02:40+2:3303:05+2:3325m231439.763269mNRNajibabad, Uttar Pradesh
72/==/LRJLaksar Junction (4)  03:45+2:2603:50+2:195m--31481.643238mNRLaksar, Uttarakhand
73%--%JWPJwalapur  04:13 04:22+2:2904:15 04:23+2:312 1m--31504.620292mNRHaridwar, Uttarakhand
74%--%HWHaridwar Junction (9)  04:35+2:2605:05 05:00+2:3230 25m--31508.532294mNRHaridwar, Uttarakhand
75|--|RWLRaiwala Junction (2)X  05:21+2:4305:23+2:452m131519.724361mNRRishikesh, Uttarakhand
76%--%DWODoiwalaX  06:15 06:14+2:0506:17 06:15+2:102 1m--31540.417484mNRDehradun, Uttarakhand
77%--%DDNDehradun (4)  07:25+36-331560.2-648mNRDehradun, Uttarakhand
Scroll to Top
Scroll to Bottom